createdAt,value
2023-03-24T00:01:04.742Z,6.45
2023-03-24T00:03:31.500Z,7.50
2023-03-24T00:06:01.637Z,4.88
2023-03-24T00:08:35.912Z,7.03
2023-03-24T00:11:04.357Z,6.18
2023-03-24T00:13:32.080Z,5.03
2023-03-24T00:15:58.923Z,6.38
2023-03-24T00:18:26.041Z,5.63
2023-03-24T00:20:58.235Z,4.93
2023-03-24T00:23:34.045Z,6.70
2023-03-24T00:26:05.332Z,6.72
2023-03-24T00:28:33.328Z,6.13
2023-03-24T00:31:01.994Z,7.88
2023-03-24T00:33:31.640Z,5.95
2023-03-24T00:35:58.163Z,5.03
2023-03-24T00:38:24.460Z,7.10
2023-03-24T00:40:51.195Z,7.10
2023-03-24T00:43:17.613Z,4.60
2023-03-24T00:45:45.960Z,5.35
2023-03-24T00:48:17.879Z,6.85
2023-03-24T00:50:45.310Z,10.20
2023-03-24T00:53:11.661Z,6.60
2023-03-24T00:55:38.022Z,6.75
2023-03-24T00:58:04.501Z,6.20
2023-03-24T01:00:30.801Z,5.13
2023-03-24T01:02:57.511Z,7.13
2023-03-24T01:05:28.336Z,5.78
2023-03-24T01:07:58.669Z,4.68
2023-03-24T01:10:26.616Z,5.90
2023-03-24T01:12:55.011Z,10.48
2023-03-24T01:15:23.119Z,7.68
2023-03-24T01:17:49.420Z,9.75
2023-03-24T01:20:16.529Z,8.00
2023-03-24T01:22:44.654Z,15.90
2023-03-24T01:25:16.699Z,14.65
2023-03-24T01:27:43.975Z,13.63
2023-03-24T01:30:13.038Z,16.55
2023-03-24T01:32:39.386Z,7.95
2023-03-24T01:35:06.283Z,6.65
2023-03-24T01:39:58.983Z,10.23
2023-03-24T01:42:26.500Z,8.93
2023-03-24T01:44:57.125Z,18.05
2023-03-24T01:47:23.411Z,13.45
2023-03-24T01:49:51.965Z,12.20
2023-03-24T01:52:20.863Z,14.23
2023-03-24T01:54:49.257Z,10.68
2023-03-24T01:57:21.894Z,12.90
2023-03-24T01:59:49.241Z,23.75
2023-03-24T02:02:15.922Z,11.10
2023-03-24T02:04:46.730Z,7.38
2023-03-24T02:07:21.199Z,7.45
2023-03-24T02:09:48.391Z,7.50
2023-03-24T02:12:14.769Z,6.50
2023-03-24T02:14:41.021Z,6.25
2023-03-24T02:17:16.291Z,6.50
2023-03-24T02:19:46.873Z,6.75
2023-03-24T02:22:31.784Z,8.32
2023-03-24T02:25:16.424Z,9.00
2023-03-24T02:27:55.327Z,8.68
2023-03-24T02:30:26.346Z,8.75
2023-03-24T02:32:55.527Z,13.50
2023-03-24T02:35:40.900Z,20.17
2023-03-24T02:38:13.358Z,20.88
2023-03-24T02:40:42.766Z,15.77
2023-03-24T02:43:27.348Z,8.43
2023-03-24T02:45:59.584Z,9.90
2023-03-24T02:49:04.574Z,7.60
2023-03-24T02:51:42.554Z,11.15
2023-03-24T02:54:14.938Z,7.35
2023-03-24T02:56:54.824Z,12.35
2023-03-24T02:59:25.814Z,9.93
2023-03-24T03:02:03.229Z,7.55
2023-03-24T03:04:33.069Z,7.45
2023-03-24T03:07:01.769Z,8.25
2023-03-24T03:09:28.664Z,7.50
2023-03-24T03:14:25.913Z,5.10
2023-03-24T03:16:59.795Z,7.13
2023-03-24T03:19:29.948Z,7.68
2023-03-24T03:21:56.564Z,10.65
2023-03-24T03:24:27.023Z,9.43
2023-03-24T03:26:57.477Z,6.65
2023-03-24T03:29:25.885Z,5.95
2023-03-24T03:31:59.058Z,8.20
2023-03-24T03:34:42.367Z,10.02
2023-03-24T03:37:27.503Z,7.88
2023-03-24T03:40:10.083Z,7.30
2023-03-24T03:42:36.617Z,5.22
2023-03-24T03:45:03.021Z,9.48
2023-03-24T03:47:30.642Z,12.65
2023-03-24T03:49:56.898Z,8.60
2023-03-24T03:52:23.130Z,5.18
2023-03-24T03:54:49.900Z,11.15
2023-03-24T03:57:16.513Z,5.53
2023-03-24T03:59:42.795Z,3.42
2023-03-24T04:02:28.179Z,10.20
2023-03-24T04:05:06.531Z,4.43
2023-03-24T04:07:36.809Z,6.70
2023-03-24T04:10:03.020Z,7.05
2023-03-24T04:12:47.098Z,4.90
2023-03-24T04:15:22.493Z,4.82
2023-03-24T04:17:58.266Z,7.60
2023-03-24T04:20:26.690Z,8.93
2023-03-24T04:23:14.645Z,7.00
2023-03-24T04:26:01.375Z,9.65
2023-03-24T04:28:27.575Z,7.25
2023-03-24T04:30:56.847Z,9.73
2023-03-24T04:33:32.462Z,5.50
2023-03-24T04:36:06.801Z,6.53
2023-03-24T04:38:36.222Z,7.88
2023-03-24T04:41:03.731Z,7.65
2023-03-24T04:43:35.968Z,10.20
2023-03-24T04:46:03.933Z,5.88
2023-03-24T04:48:30.773Z,8.73
2023-03-24T04:50:58.519Z,9.25
2023-03-24T04:53:24.981Z,8.32
2023-03-24T04:55:54.013Z,7.72
2023-03-24T04:58:21.246Z,6.40
2023-03-24T05:00:47.717Z,7.68
2023-03-24T05:03:14.680Z,5.15
2023-03-24T05:08:08.620Z,8.63
2023-03-24T05:13:01.321Z,9.77
2023-03-24T05:15:28.042Z,7.70
2023-03-24T05:17:54.341Z,8.35
2023-03-24T05:20:20.661Z,7.40
2023-03-24T05:22:46.922Z,11.63
2023-03-24T05:25:13.253Z,6.13
2023-03-24T05:27:39.490Z,6.95
2023-03-24T05:30:07.289Z,6.22
2023-03-24T05:32:33.735Z,8.38
2023-03-24T05:35:00.011Z,7.50
2023-03-24T05:37:27.356Z,8.10
2023-03-24T05:39:55.582Z,8.90
2023-03-24T05:42:22.668Z,8.25
2023-03-24T05:44:48.896Z,8.38
2023-03-24T05:47:16.300Z,13.88
2023-03-24T05:49:43.000Z,12.27
2023-03-24T05:52:09.975Z,14.88
2023-03-24T05:57:02.704Z,13.40
2023-03-24T05:59:29.247Z,10.48
2023-03-24T06:01:58.738Z,18.17
2023-03-24T06:04:25.145Z,28.05
2023-03-24T06:06:51.424Z,14.27
2023-03-24T06:09:17.655Z,13.57
2023-03-24T06:11:44.288Z,12.63
2023-03-24T06:14:10.831Z,11.73
2023-03-24T06:16:40.077Z,9.80
2023-03-24T06:19:06.784Z,11.30
2023-03-24T06:21:35.147Z,10.25
2023-03-24T06:24:01.687Z,12.38
2023-03-24T06:28:43.115Z,12.13
2023-03-24T06:33:42.552Z,8.95
2023-03-24T06:36:09.650Z,13.20
2023-03-24T06:38:36.001Z,9.50
2023-03-24T06:41:02.819Z,9.52
2023-03-24T06:43:29.893Z,9.18
2023-03-24T06:45:56.359Z,8.23
2023-03-24T06:48:22.830Z,9.25
2023-03-24T06:50:49.103Z,8.88
2023-03-24T06:53:15.592Z,9.10
2023-03-24T06:55:41.815Z,10.80
2023-03-24T06:58:08.159Z,9.43
2023-03-24T07:00:34.710Z,9.02
2023-03-24T07:03:02.501Z,6.40
2023-03-24T07:05:29.070Z,9.80
2023-03-24T07:08:27.729Z,10.00
2023-03-24T07:10:41.707Z,12.57
2023-03-24T07:13:08.353Z,5.43
2023-03-24T07:15:34.830Z,8.75
2023-03-24T07:18:01.382Z,6.97
2023-03-24T07:20:27.735Z,6.18
2023-03-24T07:22:57.309Z,7.03
2023-03-24T07:25:23.980Z,7.28
2023-03-24T07:27:53.137Z,8.30
2023-03-24T07:30:24.232Z,6.70
2023-03-24T07:32:55.713Z,5.65
2023-03-24T07:35:22.335Z,8.20
2023-03-24T07:37:50.218Z,6.35
2023-03-24T07:40:16.806Z,6.55
2023-03-24T07:42:43.360Z,4.43
2023-03-24T07:45:10.744Z,7.85
2023-03-24T07:47:38.289Z,5.28
2023-03-24T07:50:09.970Z,5.97
2023-03-24T07:52:37.015Z,4.05
2023-03-24T07:55:03.801Z,6.05
2023-03-24T07:57:31.841Z,6.20
2023-03-24T07:59:58.864Z,4.70
2023-03-24T08:02:25.320Z,5.18
2023-03-24T08:04:54.610Z,4.03
2023-03-24T08:07:20.916Z,3.83
2023-03-24T08:09:47.155Z,5.55
2023-03-24T08:12:19.922Z,5.00
2023-03-24T08:14:47.041Z,3.10
2023-03-24T08:17:13.378Z,7.07
2023-03-24T08:19:52.071Z,7.10
2023-03-24T08:22:25.055Z,6.00
2023-03-24T08:24:51.472Z,6.07
2023-03-24T08:27:17.956Z,4.82
2023-03-24T08:29:44.348Z,5.28
2023-03-24T08:32:10.746Z,4.47
2023-03-24T08:34:37.038Z,6.85
2023-03-24T08:37:03.318Z,4.88
2023-03-24T08:39:32.288Z,3.53
2023-03-24T08:41:58.628Z,4.22
2023-03-24T08:44:24.965Z,3.08
2023-03-24T08:46:51.327Z,6.93
2023-03-24T08:49:17.597Z,6.28
2023-03-24T08:51:44.170Z,4.38
2023-03-24T08:54:12.541Z,7.10
2023-03-24T08:56:39.635Z,4.13
2023-03-24T08:59:06.656Z,6.18
2023-03-24T09:01:36.404Z,3.88
2023-03-24T09:04:03.911Z,6.55
2023-03-24T09:06:30.330Z,5.65
2023-03-24T09:08:56.599Z,9.77
2023-03-24T09:11:23.248Z,5.75
2023-03-24T09:13:49.514Z,6.00
2023-03-24T09:16:16.268Z,5.05
2023-03-24T09:18:42.550Z,4.53
2023-03-24T09:21:09.117Z,6.53
2023-03-24T09:23:35.842Z,5.28
2023-03-24T09:26:02.545Z,4.95
2023-03-24T09:28:28.868Z,3.83
2023-03-24T09:31:02.281Z,5.55
2023-03-24T09:33:31.948Z,6.88
2023-03-24T09:36:00.073Z,6.60
2023-03-24T09:38:27.096Z,5.75
2023-03-24T09:40:56.125Z,4.55
2023-03-24T09:43:39.731Z,4.75
2023-03-24T09:46:11.309Z,6.20
2023-03-24T09:48:43.731Z,4.43
2023-03-24T09:51:26.304Z,3.00
2023-03-24T09:53:56.399Z,3.55
2023-03-24T09:56:23.332Z,5.22
2023-03-24T10:01:16.808Z,6.13
2023-03-24T10:03:44.136Z,6.35
2023-03-24T10:06:15.173Z,6.57
2023-03-24T10:08:43.183Z,5.38
2023-03-24T10:13:42.326Z,6.78
2023-03-24T10:16:27.119Z,5.55
2023-03-24T10:19:05.485Z,4.68
2023-03-24T10:21:35.845Z,5.03
2023-03-24T10:24:02.137Z,6.72
2023-03-24T10:26:31.302Z,8.02
2023-03-24T10:28:57.516Z,5.90
2023-03-24T10:31:29.315Z,7.10
2023-03-24T10:33:55.568Z,7.28
2023-03-24T10:36:23.154Z,7.00
2023-03-24T10:38:49.441Z,9.25
2023-03-24T10:41:17.885Z,8.88
2023-03-24T10:43:44.508Z,11.32
2023-03-24T10:46:13.997Z,6.90
2023-03-24T10:48:40.427Z,8.30
2023-03-24T10:51:07.304Z,6.50
2023-03-24T10:56:00.286Z,3.67
2023-03-24T10:58:35.526Z,5.25
2023-03-24T11:01:02.091Z,3.67
2023-03-24T11:03:30.730Z,5.05
2023-03-24T11:06:01.441Z,5.57
2023-03-24T11:08:32.556Z,3.08
2023-03-24T11:10:58.825Z,4.13
2023-03-24T11:13:30.201Z,4.57
2023-03-24T11:16:10.146Z,2.88
2023-03-24T11:18:36.400Z,5.65
2023-03-24T11:21:04.388Z,8.70
2023-03-24T11:23:31.972Z,4.40
2023-03-24T11:26:07.316Z,4.32
2023-03-24T11:28:38.559Z,2.13
2023-03-24T11:31:09.998Z,4.05
2023-03-24T11:33:42.309Z,2.28
2023-03-24T11:36:28.048Z,5.22
2023-03-24T11:39:09.464Z,3.53
2023-03-24T11:41:36.826Z,3.63
2023-03-24T11:44:18.132Z,2.22
2023-03-24T11:46:46.382Z,3.53
2023-03-24T11:49:16.079Z,6.57
2023-03-24T11:51:43.711Z,3.63
2023-03-24T11:54:13.068Z,2.17
2023-03-24T11:56:44.256Z,2.83
2023-03-24T11:59:22.452Z,3.40
2023-03-24T12:01:58.038Z,2.97
2023-03-24T12:04:29.313Z,5.25
2023-03-24T12:06:58.976Z,5.95
2023-03-24T12:09:32.306Z,2.60
2023-03-24T12:12:17.142Z,3.30
2023-03-24T12:14:43.328Z,3.05
2023-03-24T12:17:14.045Z,11.02
2023-03-24T12:19:59.146Z,4.15
2023-03-24T12:22:25.564Z,4.55
2023-03-24T12:25:07.975Z,6.05
2023-03-24T12:27:42.332Z,5.82
2023-03-24T12:30:25.690Z,4.10
2023-03-24T12:33:08.282Z,12.55
2023-03-24T12:35:49.024Z,5.70
2023-03-24T12:38:27.582Z,3.97
2023-03-24T12:41:12.412Z,3.30
2023-03-24T12:43:47.882Z,7.00
2023-03-24T12:46:46.697Z,8.57
2023-03-24T12:49:25.808Z,7.32
2023-03-24T12:52:14.935Z,3.53
2023-03-24T12:54:45.909Z,3.58
2023-03-24T12:57:14.281Z,5.47
2023-03-24T12:59:46.635Z,4.40
2023-03-24T13:02:21.929Z,4.80
2023-03-24T13:04:49.406Z,7.05
2023-03-24T13:07:18.361Z,5.72
2023-03-24T13:09:53.623Z,8.13
2023-03-24T13:12:21.301Z,5.50
2023-03-24T13:15:05.996Z,4.28
2023-03-24T13:17:35.680Z,6.70
2023-03-24T13:20:06.882Z,6.25
2023-03-24T13:22:33.850Z,5.90
2023-03-24T13:25:01.041Z,3.97
2023-03-24T13:27:29.865Z,4.65
2023-03-24T13:30:05.061Z,3.80
2023-03-24T13:32:35.158Z,3.80
2023-03-24T13:35:06.276Z,6.65
2023-03-24T13:37:37.911Z,4.65
2023-03-24T13:40:10.862Z,2.95
2023-03-24T13:42:44.104Z,4.57
2023-03-24T13:45:43.141Z,6.25
2023-03-24T13:48:09.473Z,6.30
2023-03-24T13:51:01.811Z,4.78
2023-03-24T13:53:39.455Z,4.10
2023-03-24T13:56:07.219Z,4.45
2023-03-24T13:58:48.747Z,6.45
2023-03-24T14:01:17.284Z,4.85
2023-03-24T14:04:06.364Z,2.97
2023-03-24T14:06:46.947Z,4.10
2023-03-24T14:09:21.432Z,5.30
2023-03-24T14:12:10.741Z,3.63
2023-03-24T14:14:56.961Z,7.15
2023-03-24T14:17:23.427Z,3.63
2023-03-24T14:19:58.783Z,3.88
2023-03-24T14:22:35.237Z,4.50
2023-03-24T14:25:02.795Z,3.95
2023-03-24T14:27:36.334Z,5.15
2023-03-24T14:30:15.010Z,6.55
2023-03-24T14:32:45.993Z,5.90
2023-03-24T14:35:21.065Z,4.93
2023-03-24T14:37:49.382Z,4.88
2023-03-24T14:40:29.581Z,7.13
2023-03-24T14:42:57.393Z,6.75
2023-03-24T14:45:32.748Z,3.50
2023-03-24T14:48:00.827Z,6.53
2023-03-24T14:50:27.488Z,4.22
2023-03-24T14:52:54.982Z,6.28
2023-03-24T14:55:21.734Z,7.45
2023-03-24T15:00:22.510Z,5.43
2023-03-24T15:03:10.621Z,8.13
2023-03-24T15:05:38.732Z,7.55
2023-03-24T15:08:18.829Z,3.80
2023-03-24T15:10:50.755Z,5.43
2023-03-24T15:13:28.878Z,4.55
2023-03-24T15:15:55.377Z,8.80
2023-03-24T15:18:22.401Z,6.78
2023-03-24T15:20:49.686Z,5.32
2023-03-24T15:23:23.808Z,3.97
2023-03-24T15:25:51.987Z,5.93
2023-03-24T15:28:21.911Z,5.07
2023-03-24T15:30:49.364Z,2.80
2023-03-24T15:33:16.973Z,3.97
2023-03-24T15:35:44.274Z,3.40
2023-03-24T15:38:18.350Z,4.30
2023-03-24T15:40:52.319Z,7.15
2023-03-24T15:43:20.410Z,3.55
2023-03-24T15:45:57.927Z,5.93
2023-03-24T15:48:31.460Z,7.82
2023-03-24T15:51:01.813Z,4.72
2023-03-24T15:54:06.737Z,6.88
2023-03-24T15:56:34.197Z,3.95
2023-03-24T15:59:05.987Z,4.60
2023-03-24T16:01:39.209Z,4.05
2023-03-24T16:04:06.935Z,4.60
2023-03-24T16:06:35.142Z,7.53
2023-03-24T16:09:04.034Z,4.60
2023-03-24T16:11:30.545Z,4.28
2023-03-24T16:13:57.012Z,5.30
2023-03-24T16:16:24.934Z,6.38
2023-03-24T16:18:51.461Z,8.10
2023-03-24T16:21:22.309Z,4.45
2023-03-24T16:23:49.734Z,5.38
2023-03-24T16:26:20.681Z,5.82
2023-03-24T16:28:49.890Z,7.45
2023-03-24T16:31:25.391Z,11.85
2023-03-24T16:33:52.221Z,7.03
2023-03-24T16:36:18.666Z,5.32
2023-03-24T16:38:46.586Z,8.00
2023-03-24T16:41:13.195Z,5.60
2023-03-24T16:43:40.299Z,4.38
2023-03-24T16:46:07.393Z,3.95
2023-03-24T16:48:33.690Z,7.82
2023-03-24T16:51:00.029Z,5.45
2023-03-24T16:53:26.294Z,4.88
2023-03-24T16:55:52.603Z,11.70
2023-03-24T16:58:18.864Z,4.63
2023-03-24T17:00:45.561Z,7.50
2023-03-24T17:05:43.106Z,6.57
2023-03-24T17:08:10.386Z,1.88
2023-03-24T17:10:36.654Z,3.65
2023-03-24T17:13:03.166Z,7.38
2023-03-24T17:15:30.599Z,4.60
2023-03-24T17:17:56.890Z,5.07
2023-03-24T17:20:24.092Z,4.82
2023-03-24T17:22:51.596Z,5.88
2023-03-24T17:25:21.054Z,3.80
2023-03-24T17:27:47.468Z,2.97
2023-03-24T17:30:18.205Z,3.78
2023-03-24T17:32:44.579Z,4.07
2023-03-24T17:35:12.046Z,2.38
2023-03-24T17:37:38.295Z,4.40
2023-03-24T17:40:12.030Z,8.40
2023-03-24T17:42:39.486Z,2.50
2023-03-24T17:45:06.811Z,1.77
2023-03-24T17:47:33.121Z,4.07
2023-03-24T17:49:59.726Z,3.53
2023-03-24T17:52:26.016Z,4.90
2023-03-24T17:54:52.227Z,3.33
2023-03-24T17:57:18.519Z,5.68
2023-03-24T17:59:44.798Z,11.45
2023-03-24T18:02:12.471Z,3.03
2023-03-24T18:04:38.714Z,2.25
2023-03-24T18:07:05.057Z,2.17
2023-03-24T18:09:32.384Z,2.08
2023-03-24T18:11:58.613Z,2.95
2023-03-24T18:14:24.944Z,2.53
2023-03-24T18:16:51.220Z,6.35
2023-03-24T18:19:17.804Z,3.90
2023-03-24T18:21:44.345Z,5.93
2023-03-24T18:24:10.637Z,3.13
2023-03-24T18:26:36.855Z,7.07
2023-03-24T18:29:03.556Z,5.38
2023-03-24T18:31:32.206Z,4.85
2023-03-24T18:33:58.778Z,4.10
2023-03-24T18:36:29.017Z,5.47
2023-03-24T18:38:57.275Z,5.85
2023-03-24T18:41:26.597Z,3.97
2023-03-24T18:43:53.364Z,3.80
2023-03-24T18:46:19.616Z,6.38
2023-03-24T18:48:47.588Z,5.10
2023-03-24T18:51:14.706Z,5.85
2023-03-24T18:53:41.265Z,6.30
2023-03-24T18:56:08.072Z,5.88
2023-03-24T18:58:34.838Z,6.18
2023-03-24T19:01:05.632Z,4.50
2023-03-24T19:03:32.100Z,4.82
2023-03-24T19:06:02.395Z,6.03
2023-03-24T19:08:28.649Z,5.55
2023-03-24T19:10:54.877Z,8.90
2023-03-24T19:13:21.118Z,6.05
2023-03-24T19:15:48.351Z,5.85
2023-03-24T19:18:14.893Z,5.43
2023-03-24T19:20:41.955Z,4.47
2023-03-24T19:23:08.618Z,8.82
2023-03-24T19:25:35.177Z,5.15
2023-03-24T19:28:01.409Z,4.60
2023-03-24T19:30:27.756Z,3.55
2023-03-24T19:32:53.990Z,3.80
2023-03-24T19:35:20.295Z,6.45
2023-03-24T19:37:47.051Z,5.13
2023-03-24T19:40:13.766Z,5.88
2023-03-24T19:42:41.668Z,6.85
2023-03-24T19:45:08.494Z,7.63
2023-03-24T19:47:34.839Z,5.35
2023-03-24T19:50:01.627Z,4.35
2023-03-24T19:52:27.905Z,3.47
2023-03-24T19:54:54.200Z,7.25
2023-03-24T19:57:20.467Z,3.90
2023-03-24T19:59:46.697Z,4.47
2023-03-24T20:02:15.662Z,5.07
2023-03-24T20:04:42.010Z,6.80
2023-03-24T20:07:08.275Z,6.38
2023-03-24T20:09:34.607Z,4.88
2023-03-24T20:12:00.837Z,12.13
2023-03-24T20:14:28.021Z,27.83
2023-03-24T20:16:54.373Z,17.42
2023-03-24T20:19:20.679Z,4.05
2023-03-24T20:21:46.910Z,8.25
2023-03-24T20:24:14.669Z,5.03
2023-03-24T20:26:41.242Z,5.55
2023-03-24T20:29:07.750Z,6.22
2023-03-24T20:31:36.115Z,6.47
2023-03-24T20:34:03.231Z,6.40
2023-03-24T20:36:29.569Z,8.07
2023-03-24T20:38:59.379Z,1.98
2023-03-24T20:41:26.321Z,5.18
2023-03-24T20:46:18.854Z,7.07
2023-03-24T20:48:45.546Z,4.93
2023-03-24T20:51:13.192Z,6.72
2023-03-24T20:53:40.560Z,6.15
2023-03-24T20:56:08.380Z,4.45
2023-03-24T20:58:35.512Z,7.25
2023-03-24T21:01:08.806Z,8.18
2023-03-24T21:03:35.832Z,4.22
2023-03-24T21:08:28.503Z,8.77
2023-03-24T21:10:55.659Z,5.18
2023-03-24T21:13:21.995Z,10.18
2023-03-24T21:15:48.549Z,9.20
2023-03-24T21:18:15.021Z,9.02
2023-03-24T21:20:42.390Z,11.68
2023-03-24T21:23:09.652Z,8.52
2023-03-24T21:25:36.570Z,8.18
2023-03-24T21:28:03.496Z,6.75
2023-03-24T21:32:56.212Z,6.07
2023-03-24T21:35:23.222Z,9.20
2023-03-24T21:40:18.375Z,10.77
2023-03-24T21:42:45.265Z,12.57
2023-03-24T21:45:15.348Z,7.72
2023-03-24T21:47:41.848Z,9.45
2023-03-24T21:50:08.841Z,7.72
2023-03-24T21:55:06.073Z,9.02
2023-03-24T21:59:59.281Z,11.80
2023-03-24T22:02:27.645Z,16.70
2023-03-24T22:04:54.806Z,11.68
2023-03-24T22:07:22.459Z,10.85
2023-03-24T22:09:50.654Z,8.15
2023-03-24T22:12:17.139Z,11.57
2023-03-24T22:14:43.367Z,15.32
2023-03-24T22:17:09.662Z,12.65
2023-03-24T22:19:35.982Z,10.05
2023-03-24T22:22:02.214Z,7.68
2023-03-24T22:24:29.250Z,9.00
2023-03-24T22:26:58.672Z,8.85
2023-03-24T22:29:25.980Z,5.65
2023-03-24T22:31:52.303Z,8.35
2023-03-24T22:34:18.538Z,10.48
2023-03-24T22:36:44.796Z,10.25
2023-03-24T22:39:11.014Z,3.75
2023-03-24T22:41:37.237Z,6.25
2023-03-24T22:44:03.535Z,4.28
2023-03-24T22:46:29.827Z,6.50
2023-03-24T22:48:56.077Z,2.35
2023-03-24T22:51:22.353Z,4.30
2023-03-24T22:53:48.588Z,2.75
2023-03-24T22:56:15.402Z,6.05
2023-03-24T22:58:41.787Z,4.97
2023-03-24T23:01:08.819Z,6.47
2023-03-24T23:03:35.208Z,2.65
2023-03-24T23:06:01.901Z,4.90
2023-03-24T23:08:29.556Z,8.77
2023-03-24T23:10:56.521Z,5.45
2023-03-24T23:15:49.826Z,6.05
2023-03-24T23:18:16.636Z,6.00
2023-03-24T23:20:42.910Z,2.80
2023-03-24T23:23:09.568Z,2.55
2023-03-24T23:25:40.052Z,7.57
2023-03-24T23:28:06.529Z,4.60
2023-03-24T23:30:32.745Z,5.40
2023-03-24T23:32:59.056Z,3.35
2023-03-24T23:35:25.546Z,5.32
2023-03-24T23:37:51.852Z,6.70
2023-03-24T23:40:19.110Z,3.75
2023-03-24T23:42:46.683Z,4.53
2023-03-24T23:45:14.674Z,4.60
2023-03-24T23:47:42.194Z,3.75
2023-03-24T23:50:08.809Z,5.55
2023-03-24T23:52:35.242Z,3.05
2023-03-24T23:55:04.697Z,9.07
2023-03-24T23:57:31.387Z,3.83
2023-03-24T23:59:57.709Z,4.50
